Time;durP1;ratioP1;P1;durP2;ratioP2;P2;SDS_P1;SDS_P2;PMS_P1;PMS_P2;Temp;Humidity;BMP_temperature;BMP_pressure;BME280_temperature;BME280_humidity;BME280_pressure;Samples;Min_cycle;Max_cycle;Signal;HPM_P1;HPM_P2
2022/03/15 00:00:24;;;;;;;1.00;0.50;;;;;;;16.83;21.91;100744.06;5151057;27;20082;-68
2022/03/15 00:02:50;;;;;;;0.70;0.40;;;;;;;16.89;21.64;100750.69;5142921;27;20117;-72
2022/03/15 00:05:17;;;;;;;1.27;0.80;;;;;;;16.91;21.63;100754.09;5150340;27;20030;-73
2022/03/15 00:07:44;;;;;;;1.98;0.57;;;;;;;16.95;22.02;100754.69;5150417;27;20166;-73
2022/03/15 00:10:12;;;;;;;0.82;0.40;;;;;;;16.92;22.03;100747.78;5150201;27;20190;-70
2022/03/15 00:12:38;;;;;;;0.63;0.30;;;;;;;16.99;21.88;100754.28;5149054;27;20015;-72
2022/03/15 00:15:06;;;;;;;1.58;0.55;;;;;;;17.02;22.13;100761.22;5161133;27;20151;-69
2022/03/15 00:17:32;;;;;;;0.52;0.30;;;;;;;17.04;21.77;100753.94;5170063;27;20011;-70
2022/03/15 00:19:58;;;;;;;0.30;0.28;;;;;;;17.06;21.92;100763.50;5170811;27;20030;-68
2022/03/15 00:22:24;;;;;;;1.45;0.40;;;;;;;17.08;21.62;100758.88;5159722;27;20011;-70
2022/03/15 00:24:49;;;;;;;0.60;0.35;;;;;;;17.12;22.06;100766.63;5170838;27;20026;-68
2022/03/15 00:27:15;;;;;;;0.82;0.20;;;;;;;17.10;22.15;100760.56;5170662;27;20023;-72
2022/03/15 00:29:41;;;;;;;0.22;0.17;;;;;;;17.13;21.51;100776.34;5170563;27;20029;-72
2022/03/15 00:32:08;;;;;;;0.60;0.20;;;;;;;17.13;21.48;100784.38;5160361;27;20015;-70
2022/03/15 00:34:34;;;;;;;0.47;0.30;;;;;;;17.13;21.21;100776.34;5149679;27;20042;-67
2022/03/15 00:36:59;;;;;;;0.28;0.13;;;;;;;17.14;21.65;100778.88;5149789;27;20019;-70
2022/03/15 00:39:25;;;;;;;1.33;0.30;;;;;;;17.15;21.47;100785.06;5149650;27;20082;-70
2022/03/15 00:41:50;;;;;;;0.73;0.20;;;;;;;17.15;21.64;100791.28;5149759;27;20235;-69
2022/03/15 00:44:16;;;;;;;1.13;0.30;;;;;;;17.18;21.29;100784.81;5137666;27;20146;-69
2022/03/15 00:46:41;;;;;;;0.30;0.20;;;;;;;17.20;21.19;100788.19;5149462;27;20042;-70
2022/03/15 00:49:07;;;;;;;0.10;0.10;;;;;;;17.27;21.53;100797.38;5154789;27;20023;-70
2022/03/15 00:51:34;;;;;;;0.17;0.15;;;;;;;17.25;21.41;100791.31;5149285;27;20038;-73
2022/03/15 00:54:00;;;;;;;1.42;0.20;;;;;;;17.24;21.73;100797.66;5149399;27;20031;-74
2022/03/15 00:56:26;;;;;;;0.60;0.20;;;;;;;17.23;21.59;100798.63;5149249;27;20033;-74
2022/03/15 00:58:51;;;;;;;0.80;0.30;;;;;;;17.21;21.87;100800.59;5149179;27;20019;-74
2022/03/15 01:01:17;;;;;;;1.02;0.30;;;;;;;17.19;21.86;100807.88;5149192;27;20011;-72
2022/03/15 01:03:42;;;;;;;0.65;0.20;;;;;;;17.16;21.48;100801.00;5149378;27;20015;-72
2022/03/15 01:06:09;;;;;;;0.38;0.20;;;;;;;17.15;21.67;100803.78;5149252;27;20023;-70
2022/03/15 01:08:35;;;;;;;0.40;0.13;;;;;;;17.14;21.45;100805.63;5149079;27;20015;-71
2022/03/15 01:11:00;;;;;;;0.25;0.20;;;;;;;17.12;21.61;100804.91;5149476;27;20071;-73
2022/03/15 01:13:26;;;;;;;0.57;0.30;;;;;;;17.08;22.21;100820.38;5149176;27;20038;-70
2022/03/15 01:15:53;;;;;;;0.77;0.30;;;;;;;17.08;22.14;100819.50;5149106;27;20043;-73
2022/03/15 01:18:19;;;;;;;0.65;0.28;;;;;;;17.05;21.84;100817.94;5150071;27;20007;-70
2022/03/15 01:20:44;;;;;;;0.60;0.30;;;;;;;17.03;21.74;100814.56;5148955;27;20243;-71
2022/03/15 01:23:10;;;;;;;0.68;0.30;;;;;;;17.05;22.18;100825.97;5148542;27;20098;-70
2022/03/15 01:25:37;;;;;;;0.40;0.20;;;;;;;17.02;21.91;100823.56;5148993;27;20019;-72
2022/03/15 01:28:06;;;;;;;0.20;0.20;;;;;;;17.02;21.84;100828.91;5153121;27;20015;-71
2022/03/15 01:30:31;;;;;;;0.32;0.20;;;;;;;17.00;22.01;100820.16;5169680;27;20031;-72
2022/03/15 01:32:57;;;;;;;0.73;0.30;;;;;;;17.00;21.88;100819.34;5169609;27;20078;-73
2022/03/15 01:35:23;;;;;;;0.35;0.28;;;;;;;16.97;21.38;100820.44;5169560;27;20029;-76
2022/03/15 01:37:48;;;;;;;0.20;0.10;;;;;;;16.96;22.08;100821.44;5160264;27;20011;-70
2022/03/15 01:40:14;;;;;;;0.30;0.20;;;;;;;16.97;21.70;100828.47;5148646;27;20023;-72
2022/03/15 01:42:40;;;;;;;0.20;0.15;;;;;;;16.95;21.75;100829.56;5148654;27;20027;-69
2022/03/15 01:45:06;;;;;;;0.38;0.13;;;;;;;16.95;21.89;100829.56;5148999;27;20068;-71
2022/03/15 01:47:32;;;;;;;0.40;0.15;;;;;;;16.95;21.43;100834.91;5147966;27;20030;-69
2022/03/15 01:49:58;;;;;;;0.43;0.20;;;;;;;16.92;21.92;100834.16;5148565;27;20086;-67
2022/03/15 01:52:24;;;;;;;0.80;0.20;;;;;;;16.91;21.68;100842.31;5148373;27;20026;-68
2022/03/15 01:54:50;;;;;;;0.98;0.30;;;;;;;16.89;22.22;100845.13;5148586;27;20148;-69
2022/03/15 01:57:16;;;;;;;0.90;0.20;;;;;;;16.89;22.44;100850.47;5148544;27;20015;-70
2022/03/15 01:59:42;;;;;;;0.52;0.20;;;;;;;16.89;22.50;100854.97;5148492;28;20101;-72
2022/03/15 02:02:08;;;;;;;0.88;0.40;;;;;;;16.89;22.50;100857.63;5151772;27;20026;-71
2022/03/15 02:04:36;;;;;;;0.40;0.30;;;;;;;16.87;22.17;100857.78;5148917;27;20022;-70
2022/03/15 02:07:10;;;;;;;2.00;0.20;;;;;;;16.84;22.17;100849.16;5148323;27;20045;-69
2022/03/15 02:09:36;;;;;;;0.70;0.40;;;;;;;16.84;22.38;100852.69;5148420;28;20180;-70
2022/03/15 02:12:02;;;;;;;0.73;0.40;;;;;;;16.84;22.37;100859.84;5148280;27;20058;-70
2022/03/15 02:14:28;;;;;;;1.85;0.30;;;;;;;16.82;22.50;100862.66;5148446;28;20023;-69
2022/03/15 02:16:55;;;;;;;0.30;0.25;;;;;;;16.81;22.78;100862.78;5147747;27;20067;-72
2022/03/15 02:19:21;;;;;;;2.60;0.30;;;;;;;16.80;22.25;100856.59;5148303;27;20046;-71
2022/03/15 02:21:47;;;;;;;0.35;0.30;;;;;;;16.82;22.32;100875.19;5148157;27;20011;-69
2022/03/15 02:24:13;;;;;;;2.90;0.30;;;;;;;16.80;22.65;100869.94;5148258;28;20096;-73
2022/03/15 02:26:39;;;;;;;0.80;0.30;;;;;;;16.77;22.33;100875.53;5148582;27;20038;-71
2022/03/15 02:29:05;;;;;;;0.57;0.30;;;;;;;16.79;22.56;100873.59;5148027;28;20049;-70
2022/03/15 02:31:30;;;;;;;0.82;0.55;;;;;;;16.79;22.29;100884.28;5148245;27;20020;-70
2022/03/15 02:33:56;;;;;;;0.30;0.30;;;;;;;16.78;22.48;100886.13;5148316;27;20019;-71
2022/03/15 02:36:21;;;;;;;0.28;0.20;;;;;;;16.77;22.18;100887.09;5151833;27;20019;-72
2022/03/15 02:38:47;;;;;;;1.17;0.28;;;;;;;16.77;21.96;100883.56;5151898;27;20014;-73
2022/03/15 02:41:14;;;;;;;0.50;0.30;;;;;;;16.76;22.27;100882.72;5151776;27;20015;-71
2022/03/15 02:43:41;;;;;;;0.65;0.30;;;;;;;16.75;22.43;100878.34;5148507;27;20022;-69
2022/03/15 02:46:07;;;;;;;0.82;0.30;;;;;;;16.74;22.19;100890.03;5151895;27;20063;-72
2022/03/15 02:48:34;;;;;;;0.43;0.20;;;;;;;16.75;22.35;100890.88;5151671;27;20023;-69
2022/03/15 02:51:00;;;;;;;0.55;0.50;;;;;;;16.74;22.20;100892.69;5151865;27;20236;-73
2022/03/15 02:53:26;;;;;;;0.65;0.30;;;;;;;16.73;22.15;100891.00;5151746;27;20015;-69
2022/03/15 02:55:51;;;;;;;0.77;0.30;;;;;;;16.73;22.02;100890.16;5163319;27;20025;-70
2022/03/15 02:58:19;;;;;;;0.80;0.38;;;;;;;16.71;22.14;100897.47;5172541;27;20150;-71
2022/03/15 03:00:44;;;;;;;0.55;0.25;;;;;;;16.73;21.95;100903.53;5146276;27;20086;-71
2022/03/15 03:03:10;;;;;;;1.48;0.40;;;;;;;16.70;22.09;100909.13;5149791;27;20084;-70
2022/03/15 03:05:36;;;;;;;0.73;0.40;;;;;;;16.70;22.31;100914.47;5151587;27;20015;-72
2022/03/15 03:08:04;;;;;;;1.67;0.30;;;;;;;16.68;22.21;100911.06;5152492;27;20148;-73
2022/03/15 03:10:31;;;;;;;0.28;0.25;;;;;;;16.68;22.18;100914.59;5151353;27;20049;-72
2022/03/15 03:12:57;;;;;;;0.77;0.40;;;;;;;16.65;21.98;100906.84;5151377;27;20076;-74
2022/03/15 03:15:22;;;;;;;0.38;0.30;;;;;;;16.64;22.09;100907.81;5151376;27;20048;-72
2022/03/15 03:17:49;;;;;;;0.35;0.30;;;;;;;16.66;22.30;100913.88;5151114;27;20178;-74
2022/03/15 03:20:18;;;;;;;0.70;0.40;;;;;;;16.66;21.85;100918.34;5151299;27;20026;-73
2022/03/15 03:22:44;;;;;;;0.93;0.40;;;;;;;16.64;22.03;100915.81;5151126;27;20072;-73
2022/03/15 03:25:10;;;;;;;0.75;0.28;;;;;;;16.65;22.29;100916.66;5151228;27;20035;-71
2022/03/15 03:27:35;;;;;;;0.40;0.40;;;;;;;16.64;22.44;100926.50;5150586;27;20023;-74
2022/03/15 03:30:02;;;;;;;3.25;0.60;;;;;;;16.65;22.18;100928.22;5151136;27;20018;-73
2022/03/15 03:32:28;;;;;;;1.88;0.45;;;;;;;16.65;22.26;100922.88;5150960;27;20050;-71
2022/03/15 03:34:54;;;;;;;0.50;0.25;;;;;;;16.66;22.39;100929.03;5151260;27;20011;-71
2022/03/15 03:37:20;;;;;;;0.73;0.45;;;;;;;16.65;22.01;100936.22;5150725;27;20047;-71
2022/03/15 03:39:46;;;;;;;0.73;0.45;;;;;;;16.66;22.24;100940.59;5150826;27;20011;-71
2022/03/15 03:42:12;;;;;;;0.60;0.40;;;;;;;16.63;22.64;100947.03;5150191;27;20068;-71
2022/03/15 03:44:39;;;;;;;1.20;0.50;;;;;;;16.64;22.26;100953.25;5130319;28;20019;-71
2022/03/15 03:47:06;;;;;;;0.90;0.40;;;;;;;16.63;22.30;100940.84;5140151;27;20034;-70
2022/03/15 03:49:32;;;;;;;0.90;0.38;;;;;;;16.63;22.57;100943.53;5150426;27;20031;-69
2022/03/15 03:51:58;;;;;;;1.58;0.60;;;;;;;16.63;22.77;100952.38;5150631;27;20047;-72
2022/03/15 03:54:24;;;;;;;1.48;0.30;;;;;;;16.62;22.52;100960.53;5150596;27;20007;-72
2022/03/15 03:56:50;;;;;;;0.98;0.55;;;;;;;16.61;22.54;100961.50;5150515;27;20034;-72
2022/03/15 03:59:17;;;;;;;0.85;0.60;;;;;;;16.61;22.76;100962.38;5149812;27;20038;-72
2022/03/15 04:01:43;;;;;;;0.85;0.38;;;;;;;16.61;22.61;100956.16;5158634;27;20018;-71
2022/03/15 04:04:10;;;;;;;0.77;0.50;;;;;;;16.61;22.40;100965.03;5171285;27;20011;-74
2022/03/15 04:06:37;;;;;;;0.95;0.50;;;;;;;16.60;22.81;100962.47;5171122;27;20090;-71
2022/03/15 04:09:04;;;;;;;0.80;0.50;;;;;;;16.59;22.46;100961.63;5164804;27;20026;-74
2022/03/15 04:11:31;;;;;;;0.63;0.40;;;;;;;16.58;23.00;100962.59;5149952;27;20054;-71
2022/03/15 04:14:01;;;;;;;1.20;0.50;;;;;;;16.60;22.38;100965.13;5150291;27;20199;-75
2022/03/15 04:16:27;;;;;;;1.00;0.60;;;;;;;16.59;22.94;100966.13;5150120;27;20023;-69
2022/03/15 04:18:53;;;;;;;1.15;0.50;;;;;;;16.60;22.74;100967.81;5149984;27;20011;-72
2022/03/15 04:21:24;;;;;;;0.65;0.50;;;;;;;16.61;22.64;100972.19;5149874;27;20081;-70
2022/03/15 04:23:54;;;;;;;1.15;0.70;;;;;;;16.61;22.33;100969.50;5149217;27;20023;-73
2022/03/15 04:26:20;;;;;;;0.68;0.50;;;;;;;16.58;22.73;100973.28;5149901;27;20027;-73
2022/03/15 04:28:46;;;;;;;1.02;0.52;;;;;;;16.60;23.04;100974.03;5149876;27;20078;-75
2022/03/15 04:31:12;;;;;;;0.70;0.50;;;;;;;16.63;22.60;100976.41;5149515;27;20034;-71
2022/03/15 04:33:37;;;;;;;0.88;0.57;;;;;;;16.68;21.89;100975.22;5149659;27;20136;-73
2022/03/15 04:36:03;;;;;;;0.77;0.43;;;;;;;16.72;22.04;100976.66;5149684;27;20143;-72
2022/03/15 04:38:28;;;;;;;1.38;0.55;;;;;;;16.78;22.20;100986.84;5149617;27;20078;-73
2022/03/15 04:40:54;;;;;;;0.65;0.40;;;;;;;16.84;22.02;100981.00;5149235;27;20018;-75
2022/03/15 04:43:19;;;;;;;1.33;0.70;;;;;;;16.91;22.16;100989.34;5139292;27;20034;-74
2022/03/15 04:45:45;;;;;;;1.70;0.68;;;;;;;16.96;21.73;100987.19;5144640;27;20010;-76
2022/03/15 04:48:11;;;;;;;1.08;0.63;;;;;;;17.02;21.67;100997.38;5148940;27;20031;-73
2022/03/15 04:50:37;;;;;;;1.48;0.70;;;;;;;17.07;21.36;100989.81;5149550;27;20022;-75
2022/03/15 04:53:03;;;;;;;1.23;0.50;;;;;;;17.13;21.56;100984.94;5149194;27;20015;-75
2022/03/15 04:55:28;;;;;;;1.90;0.63;;;;;;;17.19;21.08;100995.97;5148942;27;20015;-72
2022/03/15 04:57:54;;;;;;;1.67;0.60;;;;;;;17.25;21.38;101005.31;5148417;27;20019;-71
2022/03/15 05:00:19;;;;;;;1.27;0.63;;;;;;;17.32;21.25;100998.44;5149230;27;20018;-72
2022/03/15 05:02:45;;;;;;;2.50;0.80;;;;;;;17.38;21.01;100999.75;5149042;27;20067;-74
2022/03/15 05:05:13;;;;;;;0.80;0.55;;;;;;;17.47;20.90;101011.50;5149156;27;20076;-74
2022/03/15 05:07:38;;;;;;;1.73;0.80;;;;;;;17.55;20.74;101001.03;5148502;27;20022;-72
2022/03/15 05:12:50;;;;;;;1.80;0.70;;;;;;;17.69;20.51;100999.84;5157417;27;20083;-73
2022/03/15 05:15:15;;;;;;;1.20;0.80;;;;;;;17.78;20.58;101004.41;5148848;27;20018;-72
2022/03/15 05:17:41;;;;;;;1.27;0.50;;;;;;;17.88;20.37;101006.28;5160514;27;20090;-71
2022/03/15 05:20:07;;;;;;;1.30;0.93;;;;;;;17.97;20.23;101009.06;5169805;27;20030;-72
2022/03/15 05:22:33;;;;;;;1.30;0.70;;;;;;;18.06;20.28;101009.22;5160404;27;20064;-71
2022/03/15 05:24:59;;;;;;;1.40;0.60;;;;;;;18.19;20.14;101009.84;5159697;27;20019;-75
2022/03/15 05:27:26;;;;;;;1.55;0.70;;;;;;;18.27;19.95;101011.84;5148047;27;20015;-75
2022/03/15 05:29:52;;;;;;;1.27;0.60;;;;;;;18.30;19.99;101007.09;5148240;27;20088;-72
2022/03/15 05:32:18;;;;;;;1.45;0.80;;;;;;;18.29;20.04;101009.88;5147662;27;20019;-73
2022/03/15 05:34:44;;;;;;;0.98;0.60;;;;;;;18.26;20.19;101021.72;5148540;27;20150;-76
2022/03/15 05:37:10;;;;;;;0.85;0.60;;;;;;;18.26;20.23;101023.53;5148432;27;20076;-78
2022/03/15 05:39:35;;;;;;;2.72;0.80;;;;;;;18.23;20.09;101027.34;5148756;27;20244;-72
2022/03/15 05:42:01;;;;;;;1.05;0.68;;;;;;;18.25;20.27;101025.41;5148267;27;20052;-76
2022/03/15 05:44:27;;;;;;;0.95;0.70;;;;;;;18.25;20.28;101021.84;5117339;27;20090;-75
2022/03/15 05:46:53;;;;;;;1.30;0.77;;;;;;;18.26;20.12;101027.09;5148464;27;20093;-75
2022/03/15 05:49:19;;;;;;;1.20;0.60;;;;;;;18.27;20.31;101033.28;5148282;27;20031;-76
2022/03/15 05:51:45;;;;;;;1.65;0.70;;;;;;;18.27;20.29;101042.19;5148061;27;20014;-74
2022/03/15 05:54:11;;;;;;;2.55;0.90;;;;;;;18.29;20.57;101042.03;5148359;28;20035;-72
2022/03/15 05:56:39;;;;;;;2.10;0.80;;;;;;;18.29;20.52;101037.53;5148436;27;20172;-73
2022/03/15 05:59:05;;;;;;;1.02;0.65;;;;;;;18.29;20.47;101039.34;5148331;28;20003;-76
2022/03/15 06:01:30;;;;;;;1.63;1.02;;;;;;;18.30;20.67;101047.28;5147724;27;20015;-74
2022/03/15 06:03:56;;;;;;;1.05;0.70;;;;;;;18.32;20.76;101049.81;5147722;27;20030;-75
2022/03/15 06:06:22;;;;;;;2.72;0.90;;;;;;;18.30;21.13;101044.59;5147869;27;20030;-73
2022/03/15 06:08:56;;;;;;;2.65;1.17;;;;;;;18.30;20.99;101049.97;5147842;27;20015;-71
2022/03/15 06:11:22;;;;;;;3.58;0.85;;;;;;;18.30;21.38;101049.97;5154802;27;20078;-70
2022/03/15 06:13:48;;;;;;;2.70;1.08;;;;;;;18.23;21.51;101043.44;5152633;27;20011;-70
2022/03/15 06:16:14;;;;;;;2.90;1.02;;;;;;;18.28;21.67;101051.06;5152158;27;20232;-71
2022/03/15 06:18:39;;;;;;;1.52;0.88;;;;;;;18.28;21.97;101051.94;5152388;27;20022;-68
2022/03/15 06:21:05;;;;;;;3.38;1.00;;;;;;;18.26;22.23;101047.66;5150925;27;20038;-73
2022/03/15 06:23:31;;;;;;;1.85;0.85;;;;;;;18.25;22.25;101049.50;5151994;27;20010;-73
2022/03/15 06:25:56;;;;;;;2.40;0.88;;;;;;;18.25;22.26;101054.00;5151968;27;20034;-74
2022/03/15 06:28:22;;;;;;;1.10;0.70;;;;;;;18.24;22.37;101055.84;5151985;27;20102;-72
2022/03/15 06:30:47;;;;;;;2.97;1.00;;;;;;;18.24;22.23;101054.97;5151976;27;20075;-73
2022/03/15 06:33:14;;;;;;;1.63;0.73;;;;;;;18.25;22.26;101049.50;5152199;27;20018;-71
2022/03/15 06:35:42;;;;;;;1.92;0.75;;;;;;;18.26;22.39;101053.88;5152059;27;20022;-72
2022/03/15 06:38:09;;;;;;;6.82;1.30;;;;;;;18.27;22.38;101060.06;5151811;27;20082;-74
2022/03/15 06:40:36;;;;;;;1.85;0.70;;;;;;;18.28;22.36;101056.41;5151943;27;20046;-74
2022/03/15 06:43:02;;;;;;;2.92;1.00;;;;;;;18.29;22.56;101064.34;5143601;27;20011;-73
2022/03/15 06:45:28;;;;;;;3.63;0.90;;;;;;;18.30;22.78;101059.81;5131343;28;20026;-76
2022/03/15 06:47:54;;;;;;;2.08;0.80;;;;;;;18.30;22.87;101060.69;5148540;27;20087;-74
2022/03/15 06:50:20;;;;;;;1.65;0.93;;;;;;;18.29;22.64;101061.66;5151496;27;20044;-72
2022/03/15 06:52:46;;;;;;;2.08;0.80;;;;;;;18.28;22.59;101070.69;5151142;27;20038;-73
2022/03/15 06:55:13;;;;;;;3.47;0.88;;;;;;;18.31;22.65;101074.91;5152665;27;20030;-73
2022/03/15 06:57:39;;;;;;;2.13;0.93;;;;;;;18.30;22.62;101070.53;5151511;27;20025;-75
2022/03/15 07:00:10;;;;;;;3.05;1.52;;;;;;;18.32;22.64;101065.03;5151451;27;20227;-73
2022/03/15 07:02:36;;;;;;;1.80;0.90;;;;;;;18.32;22.64;101073.06;5150924;27;20014;-75
2022/03/15 07:05:02;;;;;;;1.50;0.90;;;;;;;18.31;22.41;101066.88;5151090;27;20015;-70
2022/03/15 07:07:28;;;;;;;1.67;1.00;;;;;;;18.32;22.68;101062.34;5150768;27;20022;-72
2022/03/15 07:09:55;;;;;;;2.58;1.23;;;;;;;18.34;22.77;101060.38;5149955;27;20007;-74
2022/03/15 07:12:21;;;;;;;2.45;1.08;;;;;;;18.35;22.39;101062.09;5150904;27;20019;-73
2022/03/15 07:14:47;;;;;;;4.72;0.90;;;;;;;18.35;22.35;101057.59;5151287;27;20023;-72
2022/03/15 07:17:13;;;;;;;2.28;0.88;;;;;;;18.37;22.43;101057.44;5151220;27;20003;-74
2022/03/15 07:19:39;;;;;;;2.28;0.85;;;;;;;18.36;22.53;101053.06;5133581;27;20140;-74
2022/03/15 07:22:07;;;;;;;2.22;0.80;;;;;;;18.36;22.21;101061.97;5146135;27;20011;-72
2022/03/15 07:24:36;;;;;;;1.38;0.80;;;;;;;18.38;22.01;101061.81;5151081;27;20014;-65
2022/03/15 07:27:02;;;;;;;5.88;1.35;;;;;;;18.39;21.97;101058.16;5151080;27;20015;-71
2022/03/15 07:29:28;;;;;;;2.33;1.15;;;;;;;18.37;21.69;101052.94;5150935;27;20039;-70
2022/03/15 07:31:54;;;;;;;1.85;0.80;;;;;;;18.43;21.86;101059.59;5150907;27;20247;-69
2022/03/15 07:34:19;;;;;;;1.88;0.90;;;;;;;18.43;21.80;101052.38;5150871;27;20071;-69
2022/03/15 07:37:00;;;;;;;1.42;0.90;;;;;;;18.43;22.18;101064.97;5149752;27;20228;-68
2022/03/15 07:39:26;;;;;;;1.17;0.60;;;;;;;18.41;22.42;101056.19;5150752;27;20011;-70
2022/03/15 07:41:51;;;;;;;3.08;1.75;;;;;;;18.43;22.29;101070.31;5150503;27;20030;-69
2022/03/15 07:44:17;;;;;;;1.85;0.80;;;;;;;18.44;22.05;101069.34;5141200;27;20127;-70
2022/03/15 07:46:48;;;;;;;4.03;0.93;;;;;;;18.44;21.87;101069.34;5164325;27;20003;-74
2022/03/15 07:49:40;;;;;;;4.83;1.03;;;;;;;18.40;22.15;101076.78;5149782;27;20030;-71
2022/03/15 07:52:07;;;;;;;4.97;1.30;;;;;;;17.97;22.20;101067.06;5145973;27;20236;-71
2022/03/15 07:54:33;;;;;;;1.88;0.77;;;;;;;17.60;22.48;101073.72;5150299;27;20052;-70
2022/03/15 07:56:59;;;;;;;5.10;1.73;;;;;;;17.27;22.65;101072.91;5150166;27;20125;-71
2022/03/15 07:59:24;;;;;;;1.48;0.80;;;;;;;17.02;22.95;101068.72;5150241;27;20095;-70
2022/03/15 08:01:50;;;;;;;2.97;0.85;;;;;;;16.82;23.04;101073.00;5150269;27;20015;-71
2022/03/15 08:04:16;;;;;;;1.73;1.20;;;;;;;16.67;23.19;101067.91;5150296;27;20015;-68
2022/03/15 08:06:41;;;;;;;2.28;0.93;;;;;;;16.56;22.85;101075.91;5150472;27;20015;-71
2022/03/15 08:09:07;;;;;;;1.10;0.70;;;;;;;16.42;22.76;101075.19;5150036;27;20031;-71
2022/03/15 08:11:35;;;;;;;2.20;1.10;;;;;;;16.35;23.09;101071.31;5150126;27;20071;-70
2022/03/15 08:14:01;;;;;;;3.25;1.27;;;;;;;16.26;23.11;101072.00;5150083;27;20224;-68
2022/03/15 08:16:27;;;;;;;2.63;0.82;;;;;;;16.20;23.04;101075.19;5149844;27;20030;-71
2022/03/15 08:18:54;;;;;;;1.75;0.80;;;;;;;16.13;23.11;101074.81;5150128;27;20217;-68
2022/03/15 08:21:21;;;;;;;2.05;0.77;;;;;;;16.08;22.90;101067.16;5149974;27;20095;-72
2022/03/15 08:23:46;;;;;;;2.60;0.98;;;;;;;16.02;23.39;101068.50;5150029;27;20014;-72
2022/03/15 08:26:14;;;;;;;0.75;0.50;;;;;;;15.99;22.96;101073.19;5149836;27;20060;-68
2022/03/15 08:28:40;;;;;;;1.55;1.15;;;;;;;15.95;23.03;101066.41;5149646;27;20041;-69
2022/03/15 08:31:06;;;;;;;2.00;0.75;;;;;;;15.89;23.43;101073.06;5149252;27;20151;-69
2022/03/15 08:33:32;;;;;;;3.50;0.80;;;;;;;15.83;23.16;101060.16;5148930;27;20019;-71
2022/03/15 08:35:57;;;;;;;1.60;0.73;;;;;;;15.81;23.37;101062.94;5149815;27;20030;-70
2022/03/15 08:38:23;;;;;;;5.00;1.23;;;;;;;15.76;22.96;101059.78;5149163;27;20015;-69
2022/03/15 08:40:49;;;;;;;2.25;1.00;;;;;;;15.77;23.31;101060.63;5149844;27;20220;-71
2022/03/15 08:43:15;;;;;;;2.38;0.77;;;;;;;15.78;23.33;101062.31;5139996;27;20019;-71
2022/03/15 08:45:40;;;;;;;5.57;0.85;;;;;;;15.75;23.44;101057.22;5129044;28;20045;-69
2022/03/15 08:48:06;;;;;;;3.22;1.10;;;;;;;15.72;23.48;101058.31;5149261;27;20066;-72
2022/03/15 08:50:33;;;;;;;3.08;1.00;;;;;;;15.68;23.46;101054.16;5160977;27;20023;-70
2022/03/15 08:52:58;;;;;;;3.53;1.40;;;;;;;15.69;23.60;101053.19;5148624;27;20031;-70
2022/03/15 08:55:26;;;;;;;5.25;1.70;;;;;;;15.90;23.57;101055.25;5147612;27;20191;-68
2022/03/15 08:57:52;;;;;;;4.32;1.30;;;;;;;16.17;23.33;101046.91;5154685;27;20007;-73
2022/03/15 09:00:18;;;;;;;3.30;1.63;;;;;;;16.45;23.48;101056.25;5160131;27;20140;-72
2022/03/15 09:02:44;;;;;;;4.47;2.33;;;;;;;16.66;23.31;101047.50;5162788;27;20025;-72
2022/03/15 09:05:11;;;;;;;5.35;1.80;;;;;;;16.89;23.04;101060.81;5167027;27;20018;-68
2022/03/15 09:07:37;;;;;;;7.20;2.40;;;;;;;17.02;23.06;101061.53;5152268;27;20022;-71
2022/03/15 09:10:03;;;;;;;9.27;2.40;;;;;;;17.16;22.63;101056.88;5156331;27;20011;-69
2022/03/15 09:12:29;;;;;;;13.38;3.90;;;;;;;17.25;22.74;101050.78;5148626;27;20042;-70
2022/03/15 09:14:55;;;;;;;11.77;3.83;;;;;;;17.35;22.95;101058.91;5148256;27;20023;-68
2022/03/15 09:17:20;;;;;;;9.82;3.45;;;;;;;17.46;22.52;101052.63;5148690;27;20227;-67
2022/03/15 09:19:46;;;;;;;8.60;3.60;;;;;;;17.53;22.62;101059.19;5147585;27;20015;-72
2022/03/15 09:22:12;;;;;;;12.57;4.05;;;;;;;17.61;22.54;101059.38;5148537;27;20054;-73
2022/03/15 09:24:37;;;;;;;11.45;3.03;;;;;;;17.65;22.44;101060.81;5148855;27;20036;-67
2022/03/15 09:32:13;;;;;;;7.32;2.45;;;;;;;16.90;22.68;101063.38;5705892;22;20257;-69
2022/03/15 09:34:39;;;;;;;6.78;3.00;;;;;;;16.69;23.09;101055.25;5107814;28;20100;-70
2022/03/15 09:37:05;;;;;;;5.55;2.53;;;;;;;16.51;23.20;101048.72;5107675;28;20024;-73
2022/03/15 09:39:32;;;;;;;5.30;2.10;;;;;;;16.36;23.17;101048.97;5107799;28;20057;-71
2022/03/15 09:41:59;;;;;;;3.03;1.42;;;;;;;16.28;23.21;101054.91;5107119;28;20208;-71
2022/03/15 09:44:28;;;;;;;4.93;1.85;;;;;;;16.20;23.03;101065.34;5094150;28;20023;-74
2022/03/15 09:46:55;;;;;;;8.45;1.85;;;;;;;16.15;22.97;101060.38;5107350;28;20039;-71
2022/03/15 09:49:22;;;;;;;5.72;1.88;;;;;;;16.10;23.05;101059.03;5107498;28;20229;-72
2022/03/15 09:51:48;;;;;;;8.65;1.73;;;;;;;15.98;23.07;101052.81;5107622;28;20020;-73
2022/03/15 09:54:15;;;;;;;5.15;1.90;;;;;;;15.95;22.98;101053.91;5107559;28;20071;-73
2022/03/15 09:56:41;;;;;;;4.65;1.45;;;;;;;15.90;23.39;101049.91;5106942;28;20040;-73
2022/03/15 09:59:18;;;;;;;7.60;1.65;;;;;;;15.88;22.95;101055.38;5106764;28;20028;-73
2022/03/15 10:01:50;;;;;;;3.88;1.33;;;;;;;15.85;23.01;101053.75;5087187;28;20134;-75
2022/03/15 10:04:16;;;;;;;4.50;1.40;;;;;;;15.82;23.07;101048.63;5087234;28;20052;-72
2022/03/15 10:06:42;;;;;;;4.07;1.60;;;;;;;15.81;23.05;101057.59;5093812;28;20031;-73
2022/03/15 10:09:09;;;;;;;2.88;1.30;;;;;;;15.78;22.72;101057.84;5107294;28;20024;-72
2022/03/15 10:11:35;;;;;;;4.68;2.20;;;;;;;15.79;22.75;101056.03;5107354;28;20020;-70
2022/03/15 10:14:02;;;;;;;5.15;1.70;;;;;;;15.76;22.97;101062.47;5107445;28;20051;-73
2022/03/15 10:16:35;;;;;;;3.65;1.45;;;;;;;15.75;22.95;101055.41;5106830;28;20324;-73
2022/03/15 10:19:02;;;;;;;4.40;1.30;;;;;;;15.74;22.84;101056.38;5106722;28;20091;-73
2022/03/15 10:21:40;;;;;;;3.33;1.42;;;;;;;15.75;22.84;101058.09;5106903;28;20031;-76
2022/03/15 10:24:08;;;;;;;4.25;1.40;;;;;;;15.74;22.60;101060.84;5107251;28;20028;-73
2022/03/15 10:26:38;;;;;;;2.80;1.40;;;;;;;15.69;22.68;101055.88;5107214;28;20047;-73
2022/03/15 10:29:04;;;;;;;6.17;1.27;;;;;;;15.71;22.98;101056.59;5107255;28;20023;-74
2022/03/15 10:31:30;;;;;;;5.10;0.90;;;;;;;15.70;22.84;101053.09;5106597;28;20274;-73
2022/03/15 10:34:01;;;;;;;3.55;1.27;;;;;;;15.70;22.73;101054.91;5106584;28;20114;-75
2022/03/15 10:36:39;;;;;;;3.45;1.15;;;;;;;15.69;22.56;101043.41;5106989;28;20055;-71
2022/03/15 10:39:06;;;;;;;7.10;1.60;;;;;;;15.68;22.95;101047.03;5092974;28;20027;-71
2022/03/15 10:41:52;;;;;;;2.00;0.93;;;;;;;15.71;22.65;101056.59;5106181;28;20023;-75
2022/03/15 10:44:40;;;;;;;3.28;1.67;;;;;;;15.68;22.63;101043.50;5088887;28;20026;-74
2022/03/15 10:47:15;;;;;;;2.90;1.02;;;;;;;15.62;22.54;101043.97;5076599;28;20036;-76
2022/03/15 10:49:51;;;;;;;3.53;1.00;;;;;;;15.64;22.37;101044.72;5086788;28;20146;-76
2022/03/15 10:52:41;;;;;;;3.72;1.20;;;;;;;15.61;22.89;101044.94;5098744;28;20068;-73
2022/03/15 10:55:10;;;;;;;6.28;1.35;;;;;;;15.63;22.35;101043.84;5106425;28;20225;-73
2022/03/15 10:57:54;;;;;;;3.67;1.33;;;;;;;15.66;22.83;101037.44;5110408;28;20090;-75
2022/03/15 11:00:31;;;;;;;7.07;1.70;;;;;;;15.67;22.64;101042.66;5110583;28;20213;-74
2022/03/15 11:02:58;;;;;;;5.07;1.60;;;;;;;15.70;22.75;101034.44;5110167;28;20020;-73
2022/03/15 11:05:39;;;;;;;2.65;1.23;;;;;;;15.76;22.81;101033.09;5110375;28;20031;-72
2022/03/15 11:08:17;;;;;;;2.90;1.23;;;;;;;15.76;22.83;101038.44;5110119;28;20290;-72
2022/03/15 11:10:48;;;;;;;4.00;1.55;;;;;;;15.77;23.03;101042.81;5110551;28;20073;-75
2022/03/15 11:13:16;;;;;;;2.42;0.98;;;;;;;15.89;23.21;101042.84;5110438;28;20098;-74
2022/03/15 11:15:48;;;;;;;2.10;1.08;;;;;;;15.98;22.89;101042.13;5110120;28;20258;-72
2022/03/15 11:18:16;;;;;;;3.03;1.08;;;;;;;16.05;22.69;101042.50;5110359;28;20047;-71
2022/03/15 11:20:47;;;;;;;3.13;1.00;;;;;;;16.07;22.33;101038.78;5110302;28;20062;-72
2022/03/15 11:23:14;;;;;;;1.80;0.70;;;;;;;15.99;22.47;101043.84;5109827;28;20118;-73
2022/03/15 11:25:42;;;;;;;1.48;1.00;;;;;;;15.96;22.52;101039.59;5110025;28;20113;-75
2022/03/15 11:28:12;;;;;;;3.05;1.00;;;;;;;15.91;22.75;101035.59;5109713;28;20015;-77
2022/03/15 11:30:39;;;;;;;2.47;1.15;;;;;;;15.88;22.55;101041.16;5109907;28;20064;-73